Timberhurst, Indiana
Current Conditions -  °F | °C
As of 6:15 PM on Thursday 27 Nov 2014 (Local Time) from KANQ Reporting Station
Overcast Overcast  
Wind Chill: -7°   Ceiling: 1800
Heat Index: -3°   Visibility: 10mi
Dew Point: -6°   Wind: 6mph
Humidity: 80%   Direction: 320°NW
Pressure: 30.26"   Gusts: NA
Location:  41.5677°N, 85.3125°W
Report Text: KANQ 272315Z AUTO 32005KT 10SM BKN018 OVC070 M03/M06 A3026 RMK
Loading
Personal Weather Stations






























Interactive Weather Map New forecast layout! Learn more

10-Day Weather Forecast

Advertisements
Track Severe Weather on mobile